Time;durP1;ratioP1;P1;durP2;ratioP2;P2;SDS_P1;SDS_P2;PMS_P1;PMS_P2;Temp;Humidity;BMP_temperature;BMP_pressure;BME280_temperature;BME280_humidity;BME280_pressure;Samples;Min_cycle;Max_cycle;Signal;HPM_P1;HPM_P2
2023/01/18 00:01:34;;;;;;;6.43;1.60;;;;;;;;;;6146467;23;20021;-47
2023/01/18 00:04:08;;;;;;;11.50;2.00;;;;;;;;;;6145700;23;20025;-51
2023/01/18 00:06:35;;;;;;;17.55;2.28;;;;;;;;;;6147000;23;20025;-52
2023/01/18 00:09:02;;;;;;;12.88;2.08;;;;;;;;;;6147421;23;20168;-51
2023/01/18 00:11:36;;;;;;;13.98;2.20;;;;;;;;;;6146342;23;20105;-50
2023/01/18 00:14:03;;;;;;;6.20;2.10;;;;;;;;;;6148106;23;20435;-51
2023/01/18 00:16:50;;;;;;;14.18;2.05;;;;;;;;;;6146194;23;20108;-76
2023/01/18 00:19:24;;;;;;;16.65;2.88;;;;;;;;;;6146239;23;20101;-50
2023/01/18 00:21:58;;;;;;;12.18;1.92;;;;;;;;;;6146934;23;20036;-76
2023/01/18 00:24:32;;;;;;;5.20;1.80;;;;;;;;;;6146891;23;20029;-78
2023/01/18 00:27:08;;;;;;;8.20;1.73;;;;;;;;;;6148344;23;20407;-78
2023/01/18 00:29:42;;;;;;;13.73;2.08;;;;;;;;;;6149208;23;20052;-77
2023/01/18 00:32:09;;;;;;;14.55;2.10;;;;;;;;;;6148504;23;20113;-78
2023/01/18 00:34:36;;;;;;;14.80;2.13;;;;;;;;;;6148055;23;20075;-78
2023/01/18 00:37:10;;;;;;;13.90;2.33;;;;;;;;;;6148031;23;20030;-70
2023/01/18 00:39:39;;;;;;;10.45;2.20;;;;;;;;;;6145989;23;20025;-55
2023/01/18 00:44:59;;;;;;;14.68;2.22;;;;;;;;;;6148112;23;20029;-55
2023/01/18 00:47:33;;;;;;;16.85;2.70;;;;;;;;;;6147138;23;20057;-54
2023/01/18 00:50:00;;;;;;;12.35;2.33;;;;;;;;;;6148062;23;20053;-53
2023/01/18 00:52:27;;;;;;;15.55;2.13;;;;;;;;;;6147992;23;20339;-53
2023/01/18 00:55:02;;;;;;;13.68;2.80;;;;;;;;;;6148362;23;20056;-47
2023/01/18 00:57:30;;;;;;;16.95;1.92;;;;;;;;;;6149103;23;20025;-59
2023/01/18 00:59:57;;;;;;;15.27;2.60;;;;;;;;;;6148271;23;20049;-58
2023/01/18 01:02:31;;;;;;;20.17;2.40;;;;;;;;;;6145717;23;20024;-59
2023/01/18 01:07:51;;;;;;;15.43;2.05;;;;;;;;;;6147024;23;20328;-57
2023/01/18 01:10:18;;;;;;;15.38;2.50;;;;;;;;;;6147431;23;20645;-59
2023/01/18 01:27:01;;;;;;;16.85;2.20;;;;;;;;;;6116458;23;20026;-60
2023/01/18 01:29:35;;;;;;;21.63;2.53;;;;;;;;;;6119200;23;20028;-60
2023/01/18 01:32:02;;;;;;;24.95;2.95;;;;;;;;;;6116708;23;20022;-75
2023/01/18 01:34:36;;;;;;;17.42;2.17;;;;;;;;;;6118746;23;20056;-60
2023/01/18 01:37:03;;;;;;;16.25;2.78;;;;;;;;;;6117969;23;20397;-60
2023/01/18 01:39:31;;;;;;;17.10;2.40;;;;;;;;;;6119209;23;20057;-60
2023/01/18 01:42:05;;;;;;;10.15;2.13;;;;;;;;;;6118712;23;20029;-60
2023/01/18 01:44:33;;;;;;;13.82;2.28;;;;;;;;;;6117165;23;20030;-60
2023/01/18 01:47:11;;;;;;;15.38;2.35;;;;;;;;;;6113385;23;20037;-60
2023/01/18 01:49:46;;;;;;;12.70;2.28;;;;;;;;;;6117801;23;20053;-58
2023/01/18 01:52:20;;;;;;;18.23;2.38;;;;;;;;;;6118651;23;20101;-70
2023/01/18 01:55:00;;;;;;;19.33;2.30;;;;;;;;;;6118120;23;20426;-70
2023/01/18 01:57:32;;;;;;;14.95;2.50;;;;;;;;;;6118763;23;20101;-71
2023/01/18 02:00:07;;;;;;;21.90;3.35;;;;;;;;;;6116627;23;20384;-70
2023/01/18 02:02:35;;;;;;;22.90;2.67;;;;;;;;;;6118352;23;20025;-70
2023/01/18 02:05:02;;;;;;;;;;;;;;;;;;6119186;23;20025;-70
2023/01/18 02:07:36;;;;;;;19.70;2.10;;;;;;;;;;6116506;23;20246;-59
2023/01/18 02:10:05;;;;;;;16.08;2.42;;;;;;;;;;6117631;23;20481;-51
2023/01/18 02:12:40;;;;;;;13.18;2.10;;;;;;;;;;6118744;23;20053;-50
2023/01/18 02:15:08;;;;;;;16.10;2.60;;;;;;;;;;6116533;23;20025;-53
2023/01/18 02:17:41;;;;;;;14.23;2.25;;;;;;;;;;6133480;23;20092;-49
2023/01/18 02:20:41;;;;;;;12.55;2.50;;;;;;;;;;6148122;23;20025;-48
2023/01/18 02:23:27;;;;;;;14.85;2.10;;;;;;;;;;6147681;23;20033;-48
2023/01/18 02:26:17;;;;;;;25.98;3.38;;;;;;;;;;6148222;23;20029;-56
2023/01/18 02:28:55;;;;;;;32.42;3.20;;;;;;;;;;6148354;23;20063;-47
2023/01/18 02:31:33;;;;;;;18.50;2.22;;;;;;;;;;6146201;23;20511;-46
2023/01/18 02:34:06;;;;;;;17.58;2.35;;;;;;;;;;6148239;23;20474;-46
2023/01/18 02:36:46;;;;;;;11.85;2.33;;;;;;;;;;6147822;23;20128;-45
2023/01/18 02:39:22;;;;;;;11.23;2.40;;;;;;;;;;6146993;23;20120;-48
2023/01/18 02:47:37;;;;;;;18.00;2.40;;;;;;;;;;6146882;23;20052;-70
2023/01/18 02:50:04;;;;;;;;;;;;;;;;;;6147528;23;20113;-70
2023/01/18 02:52:40;;;;;;;14.13;2.28;;;;;;;;;;6146750;23;19928;-70
2023/01/18 02:55:15;;;;;;;19.30;2.35;;;;;;;;;;6146697;23;20025;-70
2023/01/18 02:57:49;;;;;;;13.48;2.40;;;;;;;;;;6147307;23;20485;-69
2023/01/18 03:00:17;;;;;;;23.80;2.78;;;;;;;;;;6147154;23;20108;-69
2023/01/18 03:02:52;;;;;;;8.60;2.22;;;;;;;;;;6145889;23;20056;-75
2023/01/18 03:05:20;;;;;;;18.70;2.28;;;;;;;;;;6146099;23;20057;-54
2023/01/18 03:07:52;;;;;;;14.85;2.30;;;;;;;;;;6145980;23;20780;-54
2023/01/18 03:10:26;;;;;;;;;;;;;;;;;;6147342;23;20437;-55
2023/01/18 03:12:59;;;;;;;14.15;2.10;;;;;;;;;;6146149;23;20007;-53
2023/01/18 03:15:36;;;;;;;10.57;1.83;;;;;;;;;;6146828;23;20028;-55
2023/01/18 03:18:12;;;;;;;13.90;1.98;;;;;;;;;;6146810;23;20089;-51
2023/01/18 03:20:48;;;;;;;13.27;2.38;;;;;;;;;;6147850;23;20112;-61
2023/01/18 03:26:13;;;;;;;13.30;2.30;;;;;;;;;;6147400;23;20132;-45
2023/01/18 03:34:32;;;;;;;10.90;1.80;;;;;;;;;;6146540;23;20535;-48
2023/01/18 03:37:09;;;;;;;11.57;2.53;;;;;;;;;;6147364;23;20053;-48
2023/01/18 03:39:39;;;;;;;18.77;2.63;;;;;;;;;;6147392;23;20022;-52
2023/01/18 03:42:18;;;;;;;10.90;1.90;;;;;;;;;;6146959;23;20025;-58
2023/01/18 03:44:55;;;;;;;18.17;1.88;;;;;;;;;;6148163;23;20033;-56
2023/01/18 03:47:29;;;;;;;13.15;2.03;;;;;;;;;;6147219;23;20023;-58
2023/01/18 03:49:57;;;;;;;10.48;1.88;;;;;;;;;;6146814;23;20108;-58
2023/01/18 03:52:38;;;;;;;7.60;2.10;;;;;;;;;;6147016;23;20128;-57
2023/01/18 03:55:11;;;;;;;11.57;2.00;;;;;;;;;;6145285;23;20097;-58
2023/01/18 03:57:57;;;;;;;12.57;2.03;;;;;;;;;;6144117;23;20021;-72
2023/01/18 04:00:25;;;;;;;14.90;2.50;;;;;;;;;;6144170;23;20033;-60
2023/01/18 04:02:59;;;;;;;9.35;1.95;;;;;;;;;;6147755;23;20025;-61
2023/01/18 04:05:27;;;;;;;11.35;1.63;;;;;;;;;;6149640;23;20032;-60
2023/01/18 04:07:54;;;;;;;14.75;2.47;;;;;;;;;;6146082;23;20486;-61
2023/01/18 04:10:28;;;;;;;19.10;2.22;;;;;;;;;;6147951;23;20028;-60
2023/01/18 04:12:56;;;;;;;13.35;1.75;;;;;;;;;;6150034;23;20409;-60
2023/01/18 04:15:30;;;;;;;9.00;1.65;;;;;;;;;;6147977;23;20409;-55
2023/01/18 04:18:04;;;;;;;9.18;1.80;;;;;;;;;;6147595;23;20749;-70
2023/01/18 04:20:38;;;;;;;11.43;2.08;;;;;;;;;;6149439;23;20100;-48
2023/01/18 04:23:05;;;;;;;13.93;1.92;;;;;;;;;;6147955;23;20541;-49
2023/01/18 04:25:32;;;;;;;20.73;2.67;;;;;;;;;;6147555;23;20448;-50
2023/01/18 04:28:06;;;;;;;7.82;1.75;;;;;;;;;;6148973;23;20036;-53
2023/01/18 04:30:33;;;;;;;13.30;2.22;;;;;;;;;;6148244;23;20136;-52
2023/01/18 04:33:07;;;;;;;13.48;2.22;;;;;;;;;;6124631;23;20092;-53
2023/01/18 04:35:35;;;;;;;15.35;1.92;;;;;;;;;;6147353;23;20104;-48
2023/01/18 04:38:02;;;;;;;19.92;2.63;;;;;;;;;;6148289;23;20470;-55
2023/01/18 04:40:36;;;;;;;11.88;2.10;;;;;;;;;;6148646;23;20313;-53
2023/01/18 04:43:03;;;;;;;12.13;1.92;;;;;;;;;;6149340;23;20097;-52
2023/01/18 04:45:37;;;;;;;15.05;2.53;;;;;;;;;;6147844;23;20029;-51
2023/01/18 04:48:04;;;;;;;12.07;1.75;;;;;;;;;;6148753;23;20489;-53
2023/01/18 04:50:32;;;;;;;14.52;2.35;;;;;;;;;;6148278;23;20049;-55
2023/01/18 04:53:06;;;;;;;15.70;2.72;;;;;;;;;;6146972;23;20088;-60
2023/01/18 04:55:33;;;;;;;13.27;1.75;;;;;;;;;;6148520;23;20021;-48
2023/01/18 04:58:07;;;;;;;7.95;1.63;;;;;;;;;;6147706;23;20538;-49
2023/01/18 05:00:34;;;;;;;9.10;1.98;;;;;;;;;;6146556;23;20025;-49
2023/01/18 05:03:01;;;;;;;3.72;1.60;;;;;;;;;;6146016;23;20026;-48
2023/01/18 05:05:35;;;;;;;43.60;2.92;;;;;;;;;;6148979;23;20104;-51
2023/01/18 05:08:02;;;;;;;18.25;1.90;;;;;;;;;;6148768;23;20104;-52
2023/01/18 05:10:36;;;;;;;8.18;2.22;;;;;;;;;;6148814;23;20096;-46
2023/01/18 05:13:03;;;;;;;23.60;2.38;;;;;;;;;;6149920;23;20025;-55
2023/01/18 05:15:33;;;;;;;10.75;1.75;;;;;;;;;;6147409;23;20108;-70
2023/01/18 05:18:20;;;;;;;7.85;2.00;;;;;;;;;;6148690;23;20108;-71
2023/01/18 05:20:54;;;;;;;17.08;2.13;;;;;;;;;;6147724;23;20072;-72
2023/01/18 05:23:28;;;;;;;10.85;3.33;;;;;;;;;;6147501;23;20104;-74
2023/01/18 05:25:56;;;;;;;9.82;1.60;;;;;;;;;;6145400;23;20059;-72
2023/01/18 05:28:30;;;;;;;11.77;1.98;;;;;;;;;;6147211;23;20025;-70
2023/01/18 05:30:57;;;;;;;11.45;1.88;;;;;;;;;;6147614;23;20506;-71
2023/01/18 05:33:24;;;;;;;5.90;1.65;;;;;;;;;;6149002;23;20060;-71
2023/01/18 05:35:58;;;;;;;11.32;1.90;;;;;;;;;;6147674;23;20068;-72
2023/01/18 05:38:25;;;;;;;13.63;2.00;;;;;;;;;;6147795;23;20025;-73
2023/01/18 05:40:59;;;;;;;9.88;2.15;;;;;;;;;;6148105;23;20021;-71
2023/01/18 05:43:27;;;;;;;18.05;2.00;;;;;;;;;;6146328;23;20061;-72
2023/01/18 05:45:54;;;;;;;13.02;1.98;;;;;;;;;;6142023;23;20410;-72
2023/01/18 05:48:28;;;;;;;17.33;2.20;;;;;;;;;;6142745;23;20021;-62
2023/01/18 05:50:56;;;;;;;10.35;2.83;;;;;;;;;;6144216;23;20057;-71
2023/01/18 05:53:30;;;;;;;8.75;1.80;;;;;;;;;;6145340;23;20022;-71
2023/01/18 05:55:58;;;;;;;5.03;1.73;;;;;;;;;;6145301;23;20030;-71
2023/01/18 05:58:25;;;;;;;7.38;1.88;;;;;;;;;;6147195;23;20044;-71
2023/01/18 06:00:59;;;;;;;5.28;1.70;;;;;;;;;;6149746;23;20049;-71
2023/01/18 06:03:26;;;;;;;11.45;1.73;;;;;;;;;;6146808;23;20109;-72
2023/01/18 06:05:53;;;;;;;9.15;2.03;;;;;;;;;;6143356;23;20488;-57
2023/01/18 06:08:27;;;;;;;7.18;1.70;;;;;;;;;;6148189;23;20097;-56
2023/01/18 06:10:55;;;;;;;11.60;1.85;;;;;;;;;;6148630;23;20125;-60
2023/01/18 06:13:30;;;;;;;8.77;1.70;;;;;;;;;;6148769;23;20100;-61
2023/01/18 06:15:57;;;;;;;12.93;1.73;;;;;;;;;;6147636;23;20120;-59
2023/01/18 06:18:26;;;;;;;7.25;1.70;;;;;;;;;;6148301;23;20064;-59
2023/01/18 06:21:01;;;;;;;13.48;1.85;;;;;;;;;;6148435;23;20018;-59
2023/01/18 06:23:29;;;;;;;10.15;2.10;;;;;;;;;;6147497;23;20028;-59
2023/01/18 06:26:03;;;;;;;10.35;1.48;;;;;;;;;;6147604;23;20032;-50
2023/01/18 06:28:30;;;;;;;4.55;1.65;;;;;;;;;;6148559;23;20064;-61
2023/01/18 06:30:57;;;;;;;8.00;1.80;;;;;;;;;;6147259;23;20120;-61
2023/01/18 06:33:31;;;;;;;8.70;1.60;;;;;;;;;;6147582;23;20454;-62
2023/01/18 06:36:00;;;;;;;9.05;1.80;;;;;;;;;;6146865;23;20100;-61
2023/01/18 06:38:34;;;;;;;11.60;1.52;;;;;;;;;;6141830;23;20018;-61
2023/01/18 06:41:01;;;;;;;8.10;1.65;;;;;;;;;;6120009;23;20033;-61
2023/01/18 06:43:28;;;;;;;6.75;1.48;;;;;;;;;;6146573;23;20226;-46
2023/01/18 06:46:03;;;;;;;8.00;1.98;;;;;;;;;;6148081;23;20072;-47
2023/01/18 06:48:30;;;;;;;14.00;1.85;;;;;;;;;;6146365;23;20032;-47
2023/01/18 06:51:04;;;;;;;6.55;1.80;;;;;;;;;;6148334;23;20061;-48
2023/01/18 06:53:31;;;;;;;7.28;1.60;;;;;;;;;;6147670;23;20025;-45
2023/01/18 06:56:00;;;;;;;9.15;1.60;;;;;;;;;;6146964;23;20026;-45
2023/01/18 06:58:34;;;;;;;4.95;1.48;;;;;;;;;;6147395;23;20097;-46
2023/01/18 07:01:01;;;;;;;6.50;1.70;;;;;;;;;;6148326;23;20026;-59
2023/01/18 07:03:35;;;;;;;7.68;1.92;;;;;;;;;;6147313;23;20565;-59
2023/01/18 07:06:03;;;;;;;7.78;1.52;;;;;;;;;;6147763;23;20065;-59
2023/01/18 07:08:30;;;;;;;8.40;1.58;;;;;;;;;;6147234;23;20130;-59
2023/01/18 07:11:05;;;;;;;4.82;1.67;;;;;;;;;;6146939;23;20126;-59
2023/01/18 07:13:32;;;;;;;3.97;1.77;;;;;;;;;;6146984;23;20025;-59
2023/01/18 07:16:07;;;;;;;9.77;1.67;;;;;;;;;;6147851;23;20861;-60
2023/01/18 07:18:43;;;;;;;9.05;1.73;;;;;;;;;;6146439;23;20101;-59
2023/01/18 07:21:18;;;;;;;8.43;1.38;;;;;;;;;;6145846;23;20108;-72
2023/01/18 07:23:45;;;;;;;6.38;1.52;;;;;;;;;;6145745;23;20573;-45
2023/01/18 07:26:15;;;;;;;5.07;1.60;;;;;;;;;;6147383;23;20032;-46
2023/01/18 07:28:49;;;;;;;4.50;1.30;;;;;;;;;;6146687;23;20623;-48
2023/01/18 07:31:17;;;;;;;2.63;1.20;;;;;;;;;;6148271;23;20579;-47
2023/01/18 07:33:51;;;;;;;6.13;1.83;;;;;;;;;;6147126;23;20025;-46
2023/01/18 07:36:19;;;;;;;4.97;1.48;;;;;;;;;;6147373;23;20049;-45
2023/01/18 07:38:47;;;;;;;5.88;1.30;;;;;;;;;;6121220;23;20027;-60
2023/01/18 07:41:22;;;;;;;5.32;1.55;;;;;;;;;;6123521;23;20105;-60
2023/01/18 07:43:49;;;;;;;5.03;1.25;;;;;;;;;;6146584;23;20498;-60
2023/01/18 07:46:24;;;;;;;5.88;1.67;;;;;;;;;;6147948;23;20589;-61
2023/01/18 07:48:52;;;;;;;4.32;1.30;;;;;;;;;;6147215;23;20022;-60
2023/01/18 07:51:22;;;;;;;8.55;1.25;;;;;;;;;;6147253;23;20464;-60
2023/01/18 07:53:56;;;;;;;2.83;1.00;;;;;;;;;;6147638;23;20025;-60
2023/01/18 07:56:24;;;;;;;;;;;;;;;;;;6148141;23;20093;-53
2023/01/18 07:58:52;;;;;;;2.05;1.02;;;;;;;;;;6147135;23;19917;-54
2023/01/18 08:01:26;;;;;;;0.68;0.65;;;;;;;;;;6148395;23;20026;-48
2023/01/18 08:03:53;;;;;;;4.05;0.80;;;;;;;;;;6147341;23;20017;-47
2023/01/18 08:06:27;;;;;;;2.80;0.82;;;;;;;;;;6147576;23;20032;-48
2023/01/18 08:08:55;;;;;;;2.70;1.00;;;;;;;;;;6146633;23;20021;-45
2023/01/18 08:11:30;;;;;;;1.15;0.65;;;;;;;;;;6146854;23;20026;-47
2023/01/18 08:13:57;;;;;;;0.52;0.45;;;;;;;;;;6146941;23;20437;-47
2023/01/18 08:16:25;;;;;;;1.65;0.60;;;;;;;;;;6148221;23;20434;-71
2023/01/18 08:19:06;;;;;;;0.52;0.52;;;;;;;;;;6146242;23;20053;-71
2023/01/18 08:21:33;;;;;;;2.53;0.50;;;;;;;;;;6147930;23;20105;-70
2023/01/18 08:24:07;;;;;;;0.40;0.40;;;;;;;;;;6147028;23;20047;-71
2023/01/18 08:26:34;;;;;;;0.52;0.43;;;;;;;;;;6146551;23;20097;-70
2023/01/18 08:29:01;;;;;;;0.60;0.50;;;;;;;;;;6147889;23;20422;-70
2023/01/18 08:31:35;;;;;;;0.30;0.30;;;;;;;;;;6146800;23;20024;-69
2023/01/18 08:34:02;;;;;;;0.90;0.45;;;;;;;;;;6147372;23;20022;-45
2023/01/18 08:36:36;;;;;;;0.50;0.50;;;;;;;;;;6147510;23;20104;-59
2023/01/18 08:39:03;;;;;;;0.40;0.40;;;;;;;;;;6147421;23;20047;-59
2023/01/18 08:41:37;;;;;;;2.30;0.55;;;;;;;;;;6145335;23;20022;-59
2023/01/18 08:44:04;;;;;;;0.30;0.30;;;;;;;;;;6146570;23;20060;-60
2023/01/18 08:46:38;;;;;;;1.00;0.40;;;;;;;;;;6147620;23;20028;-60
2023/01/18 08:49:06;;;;;;;1.33;0.50;;;;;;;;;;6148980;23;20025;-59
2023/01/18 08:51:40;;;;;;;0.70;0.60;;;;;;;;;;6149069;23;20027;-60
2023/01/18 08:54:07;;;;;;;1.50;0.50;;;;;;;;;;6148054;23;20546;-68
2023/01/18 08:56:34;;;;;;;0.35;0.35;;;;;;;;;;6148434;23;20488;-60
2023/01/18 08:59:08;;;;;;;0.55;0.35;;;;;;;;;;6148817;23;20026;-60
2023/01/18 09:01:36;;;;;;;2.28;0.45;;;;;;;;;;6149132;23;20029;-60
2023/01/18 09:04:09;;;;;;;1.45;0.50;;;;;;;;;;6148155;23;20032;-60
2023/01/18 09:06:36;;;;;;;0.25;0.25;;;;;;;;;;6149350;23;20092;-60
2023/01/18 09:09:04;;;;;;;0.28;0.28;;;;;;;;;;6148660;23;20823;-60
2023/01/18 09:11:38;;;;;;;0.40;0.40;;;;;;;;;;6148797;23;20467;-76
2023/01/18 09:14:05;;;;;;;0.80;0.30;;;;;;;;;;6147831;23;20468;-73
2023/01/18 09:16:39;;;;;;;0.43;0.43;;;;;;;;;;6150009;23;20093;-73
2023/01/18 09:19:13;;;;;;;1.17;0.40;;;;;;;;;;6147205;23;20018;-74
2023/01/18 09:21:48;;;;;;;0.30;0.30;;;;;;;;;;6149103;23;20032;-73
2023/01/18 09:24:22;;;;;;;0.13;0.13;;;;;;;;;;6148475;23;20072;-73
2023/01/18 09:26:50;;;;;;;0.60;0.38;;;;;;;;;;6148076;23;20061;-73
2023/01/18 09:29:17;;;;;;;0.20;0.20;;;;;;;;;;6148072;23;20100;-74
2023/01/18 09:31:52;;;;;;;1.17;0.30;;;;;;;;;;6148566;23;20068;-74
2023/01/18 09:34:20;;;;;;;0.30;0.30;;;;;;;;;;6148434;23;20101;-76
2023/01/18 09:36:54;;;;;;;0.20;0.20;;;;;;;;;;6149178;23;20104;-75
2023/01/18 09:39:21;;;;;;;0.40;0.40;;;;;;;;;;6148429;23;20024;-74
2023/01/18 09:42:00;;;;;;;0.30;0.30;;;;;;;;;;6148239;23;20393;-74
2023/01/18 09:44:29;;;;;;;0.68;0.30;;;;;;;;;;6147992;23;20063;-77
2023/01/18 09:47:11;;;;;;;0.28;0.28;;;;;;;;;;6147370;23;20032;-73
2023/01/18 09:49:58;;;;;;;0.68;0.40;;;;;;;;;;6122548;23;20060;-60
2023/01/18 09:52:32;;;;;;;0.57;0.45;;;;;;;;;;6148520;23;20100;-60
2023/01/18 09:54:59;;;;;;;0.60;0.52;;;;;;;;;;6148481;23;20122;-60
2023/01/18 09:57:59;;;;;;;2.95;0.65;;;;;;;;;;6147649;23;20048;-60
2023/01/18 10:00:28;;;;;;;1.02;0.55;;;;;;;;;;6104391;23;20025;-61
2023/01/18 10:03:06;;;;;;;1.38;0.60;;;;;;;;;;6148147;23;20025;-60
2023/01/18 10:05:35;;;;;;;1.05;0.47;;;;;;;;;;6122416;23;20105;-73
2023/01/18 10:08:22;;;;;;;0.63;0.57;;;;;;;;;;6149016;23;20534;-48
2023/01/18 10:10:53;;;;;;;2.88;0.98;;;;;;;;;;6147898;23;20017;-47
2023/01/18 10:13:36;;;;;;;2.07;0.67;;;;;;;;;;6123419;23;20039;-48
2023/01/18 10:16:09;;;;;;;3.50;1.13;;;;;;;;;;6149535;23;20092;-50
2023/01/18 10:18:54;;;;;;;1.45;0.80;;;;;;;;;;6146259;23;20021;-48
2023/01/18 10:21:41;;;;;;;4.97;1.00;;;;;;;;;;6148293;23;20029;-45
2023/01/18 10:24:27;;;;;;;3.15;1.02;;;;;;;;;;6148418;23;20025;-55
2023/01/18 10:27:00;;;;;;;17.33;1.10;;;;;;;;;;6147334;23;20072;-50
2023/01/18 10:29:53;;;;;;;4.82;0.90;;;;;;;;;;6147985;23;20096;-46
2023/01/18 10:32:22;;;;;;;3.83;0.80;;;;;;;;;;6147372;23;20025;-48
2023/01/18 10:34:57;;;;;;;7.13;1.08;;;;;;;;;;6148060;23;20505;-47
2023/01/18 10:37:24;;;;;;;1.55;0.55;;;;;;;;;;6122339;23;20550;-48
2023/01/18 10:39:56;;;;;;;1.45;0.70;;;;;;;;;;6147124;23;20025;-46
2023/01/18 10:42:33;;;;;;;0.85;0.60;;;;;;;;;;6148052;23;20060;-62
2023/01/18 10:45:00;;;;;;;0.98;0.77;;;;;;;;;;6148228;23;20025;-48
2023/01/18 10:47:34;;;;;;;3.10;0.80;;;;;;;;;;6147126;23;20026;-47
2023/01/18 10:50:11;;;;;;;5.10;1.73;;;;;;;;;;6148530;23;20076;-48
2023/01/18 10:52:45;;;;;;;0.60;0.50;;;;;;;;;;6147818;23;20398;-47
2023/01/18 10:55:16;;;;;;;3.95;1.20;;;;;;;;;;6146804;23;20404;-47
2023/01/18 10:57:52;;;;;;;8.23;1.23;;;;;;;;;;6146448;23;20021;-49
2023/01/18 11:00:20;;;;;;;9.23;1.30;;;;;;;;;;6147019;23;20067;-73
2023/01/18 11:02:55;;;;;;;12.10;1.50;;;;;;;;;;6147264;23;20092;-54
2023/01/18 11:05:37;;;;;;;11.73;1.80;;;;;;;;;;6149371;23;20036;-55
2023/01/18 11:08:24;;;;;;;8.32;1.80;;;;;;;;;;6123811;23;20475;-53
2023/01/18 11:11:01;;;;;;;9.95;2.42;;;;;;;;;;6146837;23;20022;-53
2023/01/18 11:13:42;;;;;;;13.50;2.05;;;;;;;;;;6147331;23;20109;-55
2023/01/18 11:16:16;;;;;;;16.50;2.28;;;;;;;;;;6148489;23;20415;-53
2023/01/18 11:19:05;;;;;;;19.83;2.50;;;;;;;;;;6145445;23;20018;-57
2023/01/18 11:21:53;;;;;;;18.13;2.53;;;;;;;;;;6148046;23;20096;-64
2023/01/18 11:24:31;;;;;;;27.30;2.75;;;;;;;;;;6147206;23;20104;-64
2023/01/18 11:27:02;;;;;;;17.05;2.80;;;;;;;;;;6147470;23;20104;-63
2023/01/18 11:29:39;;;;;;;;;;;;;;;;;;6147437;23;20093;-64
2023/01/18 11:32:12;;;;;;;14.55;2.67;;;;;;;;;;6148413;23;19921;-63
2023/01/18 11:34:49;;;;;;;10.35;2.20;;;;;;;;;;6146955;23;20061;-63
2023/01/18 11:37:33;;;;;;;12.15;2.13;;;;;;;;;;6148113;23;20555;-48
2023/01/18 11:40:21;;;;;;;18.38;2.10;;;;;;;;;;6146263;23;20032;-46
2023/01/18 11:42:50;;;;;;;10.05;2.28;;;;;;;;;;6146113;23;20053;-48
2023/01/18 11:45:27;;;;;;;15.02;2.28;;;;;;;;;;6123152;23;20052;-50
2023/01/18 11:48:09;;;;;;;11.07;1.98;;;;;;;;;;6147078;23;20025;-46
2023/01/18 11:50:48;;;;;;;13.15;1.63;;;;;;;;;;6123290;23;20018;-50
2023/01/18 11:53:15;;;;;;;5.18;1.40;;;;;;;;;;6148528;23;20037;-51
2023/01/18 11:55:54;;;;;;;8.45;1.70;;;;;;;;;;6146674;23;20550;-54
2023/01/18 11:58:29;;;;;;;13.57;1.80;;;;;;;;;;6147392;23;20027;-53
2023/01/18 12:01:20;;;;;;;14.80;2.10;;;;;;;;;;6147566;23;20097;-54
2023/01/18 12:04:13;;;;;;;7.10;1.45;;;;;;;;;;6147482;23;20092;-56
2023/01/18 12:07:02;;;;;;;14.75;2.05;;;;;;;;;;6147529;23;20128;-56
2023/01/18 12:09:53;;;;;;;9.13;1.60;;;;;;;;;;6147392;23;20101;-56
2023/01/18 12:12:40;;;;;;;12.90;1.83;;;;;;;;;;6147182;23;20550;-55
2023/01/18 12:15:33;;;;;;;8.05;1.60;;;;;;;;;;6132564;23;20481;-69
2023/01/18 12:18:21;;;;;;;14.48;1.90;;;;;;;;;;6146543;23;20031;-48
2023/01/18 12:21:02;;;;;;;5.78;1.50;;;;;;;;;;6147370;23;20018;-47
2023/01/18 12:23:39;;;;;;;13.70;2.17;;;;;;;;;;6149650;23;20072;-49
2023/01/18 12:26:32;;;;;;;8.52;1.55;;;;;;;;;;6150778;23;20096;-47
2023/01/18 12:28:59;;;;;;;10.88;2.35;;;;;;;;;;6148970;23;20064;-46
2023/01/18 12:31:42;;;;;;;11.30;1.60;;;;;;;;;;6148914;23;20027;-48
2023/01/18 12:34:19;;;;;;;15.52;1.80;;;;;;;;;;6123601;23;20311;-55
2023/01/18 12:36:56;;;;;;;8.75;1.63;;;;;;;;;;6149217;23;20025;-59
2023/01/18 12:39:52;;;;;;;9.60;2.17;;;;;;;;;;6149142;23;20056;-60
2023/01/18 12:42:26;;;;;;;8.60;1.70;;;;;;;;;;6149174;23;20027;-60
2023/01/18 12:45:01;;;;;;;10.95;1.77;;;;;;;;;;6149229;23;20017;-60
2023/01/18 12:47:34;;;;;;;6.35;1.27;;;;;;;;;;6147675;23;20572;-60
2023/01/18 12:50:11;;;;;;;11.77;1.40;;;;;;;;;;6148475;23;20030;-60
2023/01/18 12:52:52;;;;;;;15.02;1.83;;;;;;;;;;6148777;23;20360;-69
2023/01/18 12:55:30;;;;;;;13.73;1.70;;;;;;;;;;6102460;23;20029;-63
2023/01/18 12:58:04;;;;;;;9.43;1.53;;;;;;;;;;6148937;23;20028;-63
2023/01/18 13:00:37;;;;;;;13.75;1.70;;;;;;;;;;6148814;23;20057;-62
2023/01/18 13:03:13;;;;;;;13.32;2.25;;;;;;;;;;6149114;23;20314;-63
2023/01/18 13:06:00;;;;;;;8.75;1.60;;;;;;;;;;6149298;23;20104;-63
2023/01/18 13:08:41;;;;;;;13.63;1.83;;;;;;;;;;6149168;23;20026;-57
2023/01/18 13:11:16;;;;;;;10.27;1.90;;;;;;;;;;6149077;23;20029;-61
2023/01/18 13:14:08;;;;;;;10.68;1.50;;;;;;;;;;6148192;23;20041;-58
2023/01/18 13:16:35;;;;;;;8.77;1.42;;;;;;;;;;6148233;23;20017;-58
2023/01/18 13:19:23;;;;;;;13.25;1.67;;;;;;;;;;6147548;23;20456;-57
2023/01/18 13:22:04;;;;;;;11.60;1.83;;;;;;;;;;6149035;23;20022;-57
2023/01/18 13:24:52;;;;;;;12.98;2.70;;;;;;;;;;6148809;23;20344;-57
2023/01/18 13:27:19;;;;;;;11.80;1.67;;;;;;;;;;6148600;23;20776;-63
2023/01/18 13:29:53;;;;;;;18.92;2.72;;;;;;;;;;6148094;23;20095;-47
2023/01/18 13:32:22;;;;;;;14.73;2.38;;;;;;;;;;6149512;23;20065;-48
2023/01/18 13:34:57;;;;;;;10.30;1.88;;;;;;;;;;6148927;23;20472;-45
2023/01/18 13:37:50;;;;;;;26.00;2.38;;;;;;;;;;6148025;23;20430;-48
2023/01/18 13:40:24;;;;;;;14.10;1.90;;;;;;;;;;6124369;23;20048;-51
2023/01/18 13:42:51;;;;;;;24.27;2.53;;;;;;;;;;6147898;23;20021;-50
2023/01/18 13:45:26;;;;;;;24.40;3.10;;;;;;;;;;6148552;23;20755;-49
2023/01/18 13:47:55;;;;;;;20.52;2.50;;;;;;;;;;6147284;23;20026;-70
2023/01/18 13:50:37;;;;;;;25.63;2.78;;;;;;;;;;6149109;23;20021;-63
2023/01/18 13:53:13;;;;;;;22.25;3.35;;;;;;;;;;6148481;23;20352;-62
2023/01/18 13:55:51;;;;;;;19.85;2.58;;;;;;;;;;6148305;23;20097;-62
2023/01/18 13:58:19;;;;;;;18.60;3.30;;;;;;;;;;6148964;23;20017;-63
2023/01/18 14:00:47;;;;;;;15.90;2.65;;;;;;;;;;6146042;23;20104;-63
2023/01/18 14:03:24;;;;;;;25.83;3.20;;;;;;;;;;6148141;23;20380;-63
2023/01/18 14:05:51;;;;;;;22.70;3.13;;;;;;;;;;6149227;23;20036;-56
2023/01/18 14:08:31;;;;;;;22.52;3.22;;;;;;;;;;6148344;23;20040;-60
2023/01/18 14:11:02;;;;;;;22.35;3.50;;;;;;;;;;6148708;23;20021;-60
2023/01/18 14:13:45;;;;;;;26.50;3.63;;;;;;;;;;6147328;23;20380;-61
2023/01/18 14:16:20;;;;;;;36.55;3.40;;;;;;;;;;6147919;23;20100;-60
2023/01/18 14:19:10;;;;;;;26.70;3.03;;;;;;;;;;6147843;23;20048;-61
2023/01/18 14:22:09;;;;;;;22.48;2.83;;;;;;;;;;6147166;23;20076;-61
2023/01/18 14:24:49;;;;;;;26.88;3.22;;;;;;;;;;6146941;23;20104;-61
2023/01/18 14:27:19;;;;;;;30.23;3.38;;;;;;;;;;6147536;23;20660;-50
2023/01/18 14:29:56;;;;;;;27.98;3.10;;;;;;;;;;6148260;23;20026;-48
2023/01/18 14:32:34;;;;;;;19.17;3.30;;;;;;;;;;6147988;23;20104;-48
2023/01/18 14:35:03;;;;;;;50.35;4.63;;;;;;;;;;6147314;23;20021;-47
2023/01/18 14:37:37;;;;;;;38.50;4.53;;;;;;;;;;6148142;23;20096;-45
2023/01/18 14:40:07;;;;;;;37.67;3.70;;;;;;;;;;6147243;23;20025;-45
2023/01/18 14:42:37;;;;;;;29.45;3.65;;;;;;;;;;6148081;23;20045;-54
2023/01/18 14:45:22;;;;;;;24.48;3.35;;;;;;;;;;6148000;23;20467;-61
2023/01/18 14:48:00;;;;;;;29.70;4.07;;;;;;;;;;6148353;23;20112;-62
2023/01/18 14:50:36;;;;;;;35.00;3.72;;;;;;;;;;6148992;23;20136;-62
2023/01/18 14:53:14;;;;;;;25.60;3.42;;;;;;;;;;6146917;23;20132;-62
2023/01/18 14:55:41;;;;;;;27.27;3.45;;;;;;;;;;6149101;23;20021;-62
2023/01/18 14:58:16;;;;;;;27.20;3.83;;;;;;;;;;6146996;23;20097;-62
2023/01/18 15:00:48;;;;;;;30.55;4.53;;;;;;;;;;6146191;23;20043;-49
2023/01/18 15:03:25;;;;;;;30.35;3.75;;;;;;;;;;6147132;23;20128;-61
2023/01/18 15:06:12;;;;;;;22.25;3.38;;;;;;;;;;6148073;23;20029;-62
2023/01/18 15:08:47;;;;;;;22.00;4.00;;;;;;;;;;6148136;23;20490;-62
2023/01/18 15:11:15;;;;;;;27.33;2.80;;;;;;;;;;6147922;23;20027;-62
2023/01/18 15:13:50;;;;;;;25.58;3.80;;;;;;;;;;6148287;23;20108;-62
2023/01/18 15:16:18;;;;;;;19.40;3.03;;;;;;;;;;6149012;23;20017;-63
2023/01/18 15:19:00;;;;;;;33.35;3.55;;;;;;;;;;6147287;23;20028;-61
2023/01/18 15:21:34;;;;;;;32.35;3.17;;;;;;;;;;6148525;23;20108;-52
2023/01/18 15:24:09;;;;;;;34.60;3.80;;;;;;;;;;6148638;23;20108;-49
2023/01/18 15:26:43;;;;;;;20.35;2.92;;;;;;;;;;6148842;23;20021;-48
2023/01/18 15:29:18;;;;;;;23.73;3.72;;;;;;;;;;6147008;23;20067;-50
2023/01/18 15:31:50;;;;;;;18.63;2.90;;;;;;;;;;6148498;23;20028;-48
2023/01/18 15:34:35;;;;;;;22.10;4.20;;;;;;;;;;6148989;23;20060;-50
2023/01/18 15:37:03;;;;;;;;;;;;;;;;;;6148131;23;20112;-72
2023/01/18 15:39:47;;;;;;;31.08;3.13;;;;;;;;;;6147990;23;20063;-56
2023/01/18 15:42:15;;;;;;;24.10;3.35;;;;;;;;;;6148731;23;20392;-58
2023/01/18 15:44:51;;;;;;;27.65;3.20;;;;;;;;;;6147785;23;20057;-58
2023/01/18 15:47:29;;;;;;;17.95;3.13;;;;;;;;;;6147695;23;20025;-57
2023/01/18 15:50:05;;;;;;;19.70;3.40;;;;;;;;;;6147085;23;20049;-55
2023/01/18 15:52:41;;;;;;;43.47;3.78;;;;;;;;;;6146564;23;20029;-56